createdAt,value
2019-05-05T00:02:39.530Z,99758.36
2019-05-05T00:05:35.696Z,99743.66
2019-05-05T00:08:26.309Z,99732.05
2019-05-05T00:11:36.616Z,99731.09
2019-05-05T00:14:44.227Z,99723.38
2019-05-05T00:17:34.669Z,99717.95
2019-05-05T00:20:25.163Z,99718.61
2019-05-05T00:23:16.805Z,99720.23
2019-05-05T00:26:07.352Z,99720.53
2019-05-05T00:28:58.692Z,99705.80
2019-05-05T00:31:49.166Z,99680.95
2019-05-05T00:34:39.660Z,99671.78
2019-05-05T00:37:30.142Z,99667.45
2019-05-05T00:40:20.543Z,99629.05
2019-05-05T00:43:10.931Z,99638.09
2019-05-05T00:46:09.072Z,99656.27
2019-05-05T00:48:59.371Z,99671.78
2019-05-05T00:51:49.919Z,99684.35
2019-05-05T00:54:40.632Z,99715.11
2019-05-05T00:57:31.146Z,99715.86
2019-05-05T01:00:44.258Z,99698.53
2019-05-05T01:03:34.859Z,99686.13
2019-05-05T01:06:27.461Z,99664.98
2019-05-05T01:09:19.328Z,99648.09
2019-05-05T01:12:10.188Z,99652.83
2019-05-05T01:15:00.322Z,99647.68
2019-05-05T01:17:50.858Z,99627.73
2019-05-05T01:20:41.285Z,99626.33
2019-05-05T01:23:34.795Z,99631.87
2019-05-05T01:26:24.947Z,99635.97
2019-05-05T01:29:15.687Z,99601.97
2019-05-05T01:32:08.564Z,99586.65
2019-05-05T01:34:58.904Z,99578.70
2019-05-05T01:37:55.185Z,99587.84
2019-05-05T01:41:25.259Z,99609.45
2019-05-05T01:44:15.839Z,99627.00
2019-05-05T01:47:06.279Z,99617.20
2019-05-05T01:49:57.195Z,99616.34
2019-05-05T01:52:48.392Z,99605.31
2019-05-05T01:55:38.933Z,99606.82
2019-05-05T01:58:29.269Z,99610.03
2019-05-05T02:01:19.468Z,99632.02
2019-05-05T02:04:09.607Z,99636.55
2019-05-05T02:07:00.107Z,99622.29
2019-05-05T02:09:50.808Z,99666.84
2019-05-05T02:12:41.459Z,99669.90
2019-05-05T02:15:34.184Z,99652.25
2019-05-05T02:18:25.346Z,99641.40
2019-05-05T02:21:15.850Z,99630.23
2019-05-05T02:24:08.684Z,99630.89
2019-05-05T02:26:59.306Z,99636.31
2019-05-05T02:29:59.629Z,99636.38
2019-05-05T02:32:57.888Z,99632.60
2019-05-05T02:35:48.118Z,99616.30
2019-05-05T02:38:38.568Z,99631.98
2019-05-05T02:41:29.031Z,99627.98
2019-05-05T02:44:19.337Z,99623.91
2019-05-05T02:47:25.682Z,99617.27
2019-05-05T02:50:15.723Z,99621.58
2019-05-05T02:53:06.377Z,99620.33
2019-05-05T02:55:59.957Z,99606.19
2019-05-05T02:58:50.183Z,99595.95
2019-05-05T03:01:56.258Z,99590.97
2019-05-05T03:04:46.951Z,99600.19
2019-05-05T03:07:37.648Z,99595.27
2019-05-05T03:10:27.892Z,99588.34
2019-05-05T03:13:18.152Z,99587.48
2019-05-05T03:16:16.421Z,99590.60
2019-05-05T03:19:07.178Z,99588.05
2019-05-05T03:21:57.499Z,99588.23
2019-05-05T03:24:48.102Z,99590.14
2019-05-05T03:27:38.583Z,99596.21
2019-05-05T03:30:29.813Z,99602.19
2019-05-05T03:33:19.954Z,99602.88
2019-05-05T03:36:10.449Z,99600.38
2019-05-05T03:39:00.704Z,99595.30
2019-05-05T03:42:03.634Z,99593.30
2019-05-05T03:45:06.853Z,99590.24
2019-05-05T03:47:57.336Z,99597.46
2019-05-05T03:50:47.798Z,99585.78
2019-05-05T03:53:38.098Z,99588.02
2019-05-05T03:56:28.520Z,99586.66
2019-05-05T03:59:19.018Z,99594.24
2019-05-05T04:02:37.465Z,99593.30
2019-05-05T04:05:33.992Z,99583.55
2019-05-05T04:08:24.416Z,99586.70
2019-05-05T04:11:14.828Z,99588.95
2019-05-05T04:14:05.291Z,99589.21
2019-05-05T04:17:18.760Z,99605.30
2019-05-05T04:20:30.238Z,99601.64
2019-05-05T04:23:20.744Z,99606.39
2019-05-05T04:26:10.945Z,99611.68
2019-05-05T04:29:04.667Z,99602.96
2019-05-05T04:31:54.015Z,99598.02
2019-05-05T04:34:44.898Z,99589.25
2019-05-05T04:37:35.236Z,99585.20
2019-05-05T04:40:26.436Z,99594.98
2019-05-05T04:43:16.848Z,99571.50
2019-05-05T04:46:07.262Z,99582.28
2019-05-05T04:49:04.457Z,99583.52
2019-05-05T04:51:55.446Z,99582.36
2019-05-05T04:54:50.733Z,99586.52
2019-05-05T04:57:40.939Z,99574.06
2019-05-05T05:00:31.381Z,99577.48
2019-05-05T05:03:40.273Z,99572.60
2019-05-05T05:06:40.905Z,99575.48
2019-05-05T05:09:34.030Z,99582.90
2019-05-05T05:12:23.910Z,99587.29
2019-05-05T05:15:14.722Z,99582.21
2019-05-05T05:18:16.865Z,99578.67
2019-05-05T05:21:08.707Z,99588.25
2019-05-05T05:23:59.136Z,99585.84
2019-05-05T05:26:49.592Z,99592.83
2019-05-05T05:29:40.026Z,99607.95
2019-05-05T05:32:30.682Z,99605.67
2019-05-05T05:35:20.792Z,99599.29
2019-05-05T05:38:11.151Z,99596.41
2019-05-05T05:41:23.938Z,99592.91
2019-05-05T05:44:21.377Z,99592.91
2019-05-05T05:47:36.404Z,99602.53
2019-05-05T05:50:33.925Z,99597.35
2019-05-05T05:53:24.628Z,99591.09
2019-05-05T05:56:16.029Z,99590.93
2019-05-05T05:59:06.512Z,99592.49
2019-05-05T06:02:08.993Z,99593.30
2019-05-05T06:04:48.596Z,99593.30
2019-05-05T06:07:38.885Z,99590.70
2019-05-05T06:10:29.469Z,99580.19
2019-05-05T06:13:20.016Z,99580.19
2019-05-05T06:16:10.458Z,99595.27
2019-05-05T06:19:03.500Z,99587.52
2019-05-05T06:21:54.315Z,99596.09
2019-05-05T06:24:44.967Z,99594.20
2019-05-05T06:27:35.464Z,99591.12
2019-05-05T06:30:25.645Z,99601.06
2019-05-05T06:33:16.241Z,99595.30
2019-05-05T06:36:06.744Z,99598.22
2019-05-05T06:38:57.196Z,99593.38
2019-05-05T06:42:09.576Z,99593.27
2019-05-05T06:45:16.094Z,99590.45
2019-05-05T06:48:06.355Z,99591.56
2019-05-05T06:50:57.732Z,99579.31
2019-05-05T06:53:48.300Z,99576.91
2019-05-05T06:56:38.583Z,99576.47
2019-05-05T06:59:29.120Z,99568.60
2019-05-05T07:02:19.481Z,99564.64
2019-05-05T07:05:09.654Z,99566.69
2019-05-05T07:08:01.631Z,99566.71
2019-05-05T07:10:54.743Z,99556.36
2019-05-05T07:13:45.313Z,99569.50
2019-05-05T07:16:36.571Z,99568.31
2019-05-05T07:19:27.680Z,99575.52
2019-05-05T07:22:19.848Z,99587.10
2019-05-05T07:25:11.170Z,99582.43
2019-05-05T07:28:04.218Z,99577.69
2019-05-05T07:30:55.333Z,99582.01
2019-05-05T07:33:46.650Z,99579.61
2019-05-05T07:36:48.763Z,99584.73
2019-05-05T07:39:39.194Z,99590.23
2019-05-05T07:42:29.590Z,99595.23
2019-05-05T07:45:22.967Z,99610.53
2019-05-05T07:48:13.696Z,99580.67
2019-05-05T07:51:05.261Z,99577.92
2019-05-05T07:53:56.608Z,99549.47
2019-05-05T07:56:47.511Z,99588.84
2019-05-05T07:59:37.981Z,99578.14
2019-05-05T08:02:28.412Z,99580.05
2019-05-05T08:05:19.437Z,99583.75
2019-05-05T08:08:10.647Z,99576.04
2019-05-05T08:11:01.234Z,99576.14
2019-05-05T08:13:54.747Z,99568.45
2019-05-05T08:17:01.452Z,99584.77
2019-05-05T08:19:58.593Z,99579.69
2019-05-05T08:22:48.696Z,99586.26
2019-05-05T08:25:54.134Z,99591.77
2019-05-05T08:28:53.991Z,99574.36
2019-05-05T08:31:53.663Z,99575.63
2019-05-05T08:34:56.933Z,99559.91
2019-05-05T08:37:35.956Z,99581.70
2019-05-05T08:40:27.037Z,99572.20
2019-05-05T08:43:18.137Z,99574.21
2019-05-05T08:46:09.332Z,99569.98
2019-05-05T08:49:00.567Z,99575.20
2019-05-05T08:51:51.642Z,99575.11
2019-05-05T08:54:44.468Z,99577.61
2019-05-05T08:57:35.285Z,99582.36
2019-05-05T09:00:26.374Z,99563.47
2019-05-05T09:03:17.337Z,99570.48
2019-05-05T09:06:08.113Z,99577.86
2019-05-05T09:08:59.068Z,99564.94
2019-05-05T09:11:50.209Z,99573.48
2019-05-05T09:14:41.240Z,99564.78
2019-05-05T09:17:33.592Z,99570.98
2019-05-05T09:20:24.301Z,99592.23
2019-05-05T09:23:15.006Z,99581.28
2019-05-05T09:26:36.339Z,99540.98
2019-05-05T09:29:34.733Z,99571.94
2019-05-05T09:32:24.889Z,99566.27
2019-05-05T09:35:15.134Z,99548.58
2019-05-05T09:38:05.574Z,99547.52
2019-05-05T09:40:56.069Z,99555.52
2019-05-05T09:43:46.496Z,99548.84
2019-05-05T09:46:39.572Z,99554.15
2019-05-05T09:49:28.866Z,99539.62
2019-05-05T09:52:19.435Z,99539.25
2019-05-05T09:55:13.846Z,99533.20
2019-05-05T09:58:04.490Z,99527.02
2019-05-05T10:00:55.986Z,99519.08
2019-05-05T10:03:46.463Z,99524.50
2019-05-05T10:06:37.335Z,99503.78
2019-05-05T10:09:27.999Z,99502.08
2019-05-05T10:12:18.373Z,99496.10
2019-05-05T10:15:09.067Z,99499.14
2019-05-05T10:17:59.460Z,99499.15
2019-05-05T10:20:50.004Z,99491.20
2019-05-05T10:23:43.620Z,99503.52
2019-05-05T10:26:35.119Z,99498.11
2019-05-05T10:29:25.611Z,99499.89
2019-05-05T10:32:16.305Z,99489.52
2019-05-05T10:35:06.753Z,99478.19
2019-05-05T10:37:57.096Z,99492.86
2019-05-05T10:40:48.406Z,99485.86
2019-05-05T10:43:38.800Z,99471.92
2019-05-05T10:46:29.397Z,99484.22
2019-05-05T10:49:21.084Z,99492.91
2019-05-05T10:52:14.048Z,99493.75
2019-05-05T10:55:04.241Z,99501.61
2019-05-05T10:57:55.078Z,99508.83
2019-05-05T11:00:57.275Z,99527.31
2019-05-05T11:03:47.756Z,99523.80
2019-05-05T11:06:38.328Z,99518.99
2019-05-05T11:09:28.754Z,99514.57
2019-05-05T11:12:19.352Z,99516.43
2019-05-05T11:15:09.456Z,99515.32
2019-05-05T11:17:59.953Z,99512.29
2019-05-05T11:20:50.602Z,99516.28
2019-05-05T11:23:41.303Z,99504.95
2019-05-05T11:26:33.866Z,99514.98
2019-05-05T11:29:24.189Z,99510.73
2019-05-05T11:32:21.497Z,99500.88
2019-05-05T11:35:13.891Z,99487.64
2019-05-05T11:38:03.675Z,99482.16
2019-05-05T11:40:54.811Z,99475.22
2019-05-05T11:43:45.320Z,99479.62
2019-05-05T11:46:35.962Z,99496.15
2019-05-05T11:49:27.241Z,99472.83
2019-05-05T11:52:17.708Z,99463.02
2019-05-05T11:55:11.655Z,99458.95
2019-05-05T11:58:00.567Z,99452.10
2019-05-05T12:00:50.976Z,99444.92
2019-05-05T12:03:41.442Z,99449.73
2019-05-05T12:06:33.848Z,99443.66
2019-05-05T12:09:29.784Z,99447.56
2019-05-05T12:12:20.022Z,99445.43
2019-05-05T12:15:10.470Z,99437.92
2019-05-05T12:18:00.722Z,99446.92
2019-05-05T12:20:51.164Z,99432.70
2019-05-05T12:23:44.441Z,99458.23
2019-05-05T12:26:54.164Z,99430.47
2019-05-05T12:29:54.448Z,99409.23
2019-05-05T12:32:44.871Z,99409.03
2019-05-05T12:35:35.429Z,99411.66
2019-05-05T12:38:25.969Z,99420.78
2019-05-05T12:41:16.546Z,99429.58
2019-05-05T12:44:08.497Z,99424.74
2019-05-05T12:47:34.248Z,99424.44
2019-05-05T12:50:24.937Z,99432.73
2019-05-05T12:53:15.262Z,99423.81
2019-05-05T12:56:05.924Z,99424.94
2019-05-05T12:58:56.055Z,99430.38
2019-05-05T13:01:46.752Z,99429.48
2019-05-05T13:04:37.234Z,99416.41
2019-05-05T13:07:28.116Z,99423.81
2019-05-05T13:10:19.423Z,99432.83
2019-05-05T13:13:10.170Z,99431.59
2019-05-05T13:16:00.556Z,99430.11
2019-05-05T13:18:51.119Z,99428.84
2019-05-05T13:22:06.626Z,99427.92
2019-05-05T13:25:21.981Z,99429.06
2019-05-05T13:28:11.997Z,99412.04
2019-05-05T13:31:04.610Z,99407.98
2019-05-05T13:33:54.951Z,99416.16
2019-05-05T13:36:48.527Z,99418.69
2019-05-05T13:39:38.897Z,99422.09
2019-05-05T13:42:30.160Z,99414.47
2019-05-05T13:45:38.696Z,99407.70
2019-05-05T13:48:29.502Z,99408.31
2019-05-05T13:51:19.950Z,99408.38
2019-05-05T13:54:10.723Z,99408.11
2019-05-05T13:57:01.063Z,99412.19
2019-05-05T13:59:51.373Z,99409.38
2019-05-05T14:02:43.893Z,99414.28
2019-05-05T14:05:34.500Z,99421.10
2019-05-05T14:08:25.936Z,99421.01
2019-05-05T14:11:16.661Z,99428.20
2019-05-05T14:14:07.102Z,99432.39
2019-05-05T14:16:57.683Z,99437.54
2019-05-05T14:20:01.555Z,99442.27
2019-05-05T14:22:39.942Z,99439.95
2019-05-05T14:25:30.899Z,99439.23
2019-05-05T14:28:23.639Z,99439.55
2019-05-05T14:31:16.975Z,99438.06
2019-05-05T14:34:15.853Z,99435.56
2019-05-05T14:37:24.854Z,99438.78
2019-05-05T14:40:15.316Z,99433.88
2019-05-05T14:43:05.720Z,99430.33
2019-05-05T14:45:56.417Z,99425.48
2019-05-05T14:48:46.593Z,99423.83
2019-05-05T14:51:36.928Z,99433.97
2019-05-05T14:54:27.381Z,99442.84
2019-05-05T14:57:18.704Z,99442.28
2019-05-05T15:00:10.365Z,99452.65
2019-05-05T15:03:03.686Z,99471.15
2019-05-05T15:06:20.002Z,99482.33
2019-05-05T15:09:27.573Z,99501.84
2019-05-05T15:12:30.434Z,99523.72
2019-05-05T15:15:23.620Z,99545.56
2019-05-05T15:18:14.631Z,99557.70
2019-05-05T15:21:05.062Z,99585.51
2019-05-05T15:23:55.292Z,99587.48
2019-05-05T15:26:51.957Z,99586.83
2019-05-05T15:29:37.647Z,99586.52
2019-05-05T15:32:27.904Z,99600.31
2019-05-05T15:35:18.384Z,99593.86
2019-05-05T15:38:08.648Z,99582.19
2019-05-05T15:40:58.953Z,99579.07
2019-05-05T15:43:49.235Z,99570.64
2019-05-05T15:46:39.791Z,99553.09
2019-05-05T15:49:30.410Z,99545.60
2019-05-05T15:52:21.012Z,99555.83
2019-05-05T15:55:11.297Z,99549.88
2019-05-05T15:58:03.509Z,99545.81
2019-05-05T16:00:55.024Z,99542.88
2019-05-05T16:03:45.217Z,99547.64
2019-05-05T16:06:35.678Z,99554.88
2019-05-05T16:09:26.092Z,99563.56
2019-05-05T16:12:16.552Z,99570.58
2019-05-05T16:15:26.725Z,99560.89
2019-05-05T16:18:24.706Z,99560.92
2019-05-05T16:21:34.620Z,99567.38
2019-05-05T16:24:31.392Z,99573.48
2019-05-05T16:27:24.900Z,99578.62
2019-05-05T16:30:17.069Z,99569.64
2019-05-05T16:33:07.606Z,99580.13
2019-05-05T16:35:58.091Z,99577.96
2019-05-05T16:38:48.651Z,99571.57
2019-05-05T16:41:39.333Z,99579.50
2019-05-05T16:44:29.960Z,99576.58
2019-05-05T16:47:20.887Z,99571.59
2019-05-05T16:50:11.267Z,99571.91
2019-05-05T16:53:04.366Z,99578.51
2019-05-05T16:55:56.583Z,99586.89
2019-05-05T16:58:47.297Z,99598.16
2019-05-05T17:01:37.605Z,99598.00
2019-05-05T17:04:30.352Z,99598.00
2019-05-05T17:07:20.802Z,99598.69
2019-05-05T17:10:11.108Z,99612.87
2019-05-05T17:13:07.184Z,99602.98
2019-05-05T17:16:15.269Z,99613.59
2019-05-05T17:19:14.173Z,99616.19
2019-05-05T17:22:35.682Z,99616.67
2019-05-05T17:25:25.645Z,99616.67
2019-05-05T17:28:16.366Z,99611.52
2019-05-05T17:31:06.940Z,99605.75
2019-05-05T17:33:57.287Z,99597.25
2019-05-05T17:36:47.677Z,99597.25
2019-05-05T17:39:43.790Z,99610.44
2019-05-05T17:42:45.098Z,99613.81
2019-05-05T17:45:55.078Z,99611.99
2019-05-05T17:49:04.678Z,99617.36
2019-05-05T17:52:00.310Z,99610.64
2019-05-05T17:54:54.048Z,99612.16
2019-05-05T17:57:45.445Z,99617.56
2019-05-05T18:00:43.476Z,99626.33
2019-05-05T18:03:34.076Z,99626.52
2019-05-05T18:06:34.887Z,99633.41
2019-05-05T18:09:35.227Z,99631.06
2019-05-05T18:12:54.068Z,99640.48
2019-05-05T18:15:54.334Z,99638.11
2019-05-05T18:18:46.133Z,99646.56
2019-05-05T18:21:36.661Z,99641.19
2019-05-05T18:24:27.127Z,99642.16
2019-05-05T18:27:18.072Z,99649.27
2019-05-05T18:30:08.532Z,99646.91
2019-05-05T18:32:58.998Z,99651.33
2019-05-05T18:35:49.528Z,99650.63
2019-05-05T18:38:40.147Z,99644.20
2019-05-05T18:41:39.006Z,99651.31
2019-05-05T18:44:35.977Z,99651.31
2019-05-05T18:47:29.239Z,99663.13
2019-05-05T18:50:19.554Z,99665.47
2019-05-05T18:53:10.114Z,99662.44
2019-05-05T18:56:00.645Z,99660.44
2019-05-05T18:58:50.978Z,99663.81
2019-05-05T19:01:48.646Z,99656.56
2019-05-05T19:04:48.817Z,99659.77
2019-05-05T19:07:55.234Z,99656.41
2019-05-05T19:10:37.904Z,99671.56
2019-05-05T19:13:28.548Z,99668.38
2019-05-05T19:16:18.791Z,99675.95
2019-05-05T19:19:09.512Z,99674.94
2019-05-05T19:22:04.645Z,99681.00
2019-05-05T19:24:55.242Z,99680.32
2019-05-05T19:27:46.421Z,99679.31
2019-05-05T19:30:36.725Z,99684.55
2019-05-05T19:33:27.179Z,99689.28
2019-05-05T19:36:17.714Z,99687.23
2019-05-05T19:39:08.189Z,99686.91
2019-05-05T19:42:00.598Z,99680.00
2019-05-05T19:44:50.978Z,99682.02
2019-05-05T19:47:43.885Z,99678.31
2019-05-05T19:50:40.108Z,99675.61
2019-05-05T19:53:30.362Z,99677.12
2019-05-05T19:56:21.841Z,99690.61
2019-05-05T19:59:13.722Z,99647.27
2019-05-05T20:02:04.254Z,99681.01
2019-05-05T20:04:54.970Z,99682.68
2019-05-05T20:07:45.547Z,99679.00
2019-05-05T20:10:35.816Z,99674.27
2019-05-05T20:13:26.321Z,99678.64
2019-05-05T20:16:26.541Z,99675.79
2019-05-05T20:19:16.653Z,99672.08
2019-05-05T20:22:08.065Z,99673.93
2019-05-05T20:24:58.545Z,99672.91
2019-05-05T20:27:48.687Z,99673.58
2019-05-05T20:30:38.852Z,99670.20
2019-05-05T20:33:38.271Z,99677.12
2019-05-05T20:36:28.938Z,99672.03
2019-05-05T20:39:19.449Z,99678.29
2019-05-05T20:42:09.589Z,99681.09
2019-05-05T20:44:59.961Z,99673.85
2019-05-05T20:47:50.195Z,99671.47
2019-05-05T20:50:41.056Z,99674.81
2019-05-05T20:53:31.554Z,99677.34
2019-05-05T20:56:22.253Z,99676.50
2019-05-05T20:59:26.814Z,99672.98
2019-05-05T21:02:04.745Z,99666.91
2019-05-05T21:04:55.511Z,99663.53
2019-05-05T21:07:46.988Z,99669.41
2019-05-05T21:10:37.613Z,99670.78
2019-05-05T21:13:27.832Z,99676.84
2019-05-05T21:16:18.268Z,99676.87
2019-05-05T21:19:08.570Z,99684.10
2019-05-05T21:22:00.965Z,99680.56
2019-05-05T21:24:51.308Z,99680.39
2019-05-05T21:27:43.590Z,99682.38
2019-05-05T21:30:34.257Z,99682.84
2019-05-05T21:33:24.473Z,99681.84
2019-05-05T21:36:14.863Z,99672.09
2019-05-05T21:39:06.713Z,99678.33
2019-05-05T21:41:58.317Z,99679.11
2019-05-05T21:44:48.609Z,99682.09
2019-05-05T21:47:39.584Z,99679.90
2019-05-05T21:50:35.670Z,99681.77
2019-05-05T21:53:36.411Z,99685.36
2019-05-05T21:56:44.600Z,99678.48
2019-05-05T21:59:35.055Z,99662.50
2019-05-05T22:02:25.646Z,99677.17
2019-05-05T22:05:15.917Z,99681.23
2019-05-05T22:08:06.324Z,99677.89
2019-05-05T22:10:56.659Z,99677.39
2019-05-05T22:13:46.876Z,99676.38
2019-05-05T22:16:37.499Z,99672.31
2019-05-05T22:19:29.587Z,99668.77
2019-05-05T22:22:21.486Z,99673.16
2019-05-05T22:25:11.452Z,99670.80
2019-05-05T22:28:04.142Z,99669.09
2019-05-05T22:30:55.557Z,99666.90
2019-05-05T22:33:46.034Z,99668.75
2019-05-05T22:36:36.530Z,99668.06
2019-05-05T22:39:27.747Z,99665.70
2019-05-05T22:42:18.368Z,99670.23
2019-05-05T22:45:09.367Z,99667.56
2019-05-05T22:47:59.966Z,99664.33
2019-05-05T22:50:50.513Z,99667.34
2019-05-05T22:53:40.943Z,99660.78
2019-05-05T22:56:33.744Z,99656.89
2019-05-05T22:59:26.146Z,99652.20
2019-05-05T23:02:17.760Z,99647.86
2019-05-05T23:05:25.119Z,99640.75
2019-05-05T23:08:18.398Z,99639.72
2019-05-05T23:11:07.463Z,99633.93
2019-05-05T23:14:16.843Z,99639.48
2019-05-05T23:17:34.025Z,99638.98
2019-05-05T23:20:54.697Z,99646.92
2019-05-05T23:24:14.179Z,99647.23
2019-05-05T23:27:04.814Z,99637.28
2019-05-05T23:29:55.211Z,99641.63
2019-05-05T23:32:45.962Z,99649.07
2019-05-05T23:35:36.382Z,99636.30
2019-05-05T23:38:26.829Z,99645.83
2019-05-05T23:41:17.324Z,99643.34
2019-05-05T23:44:07.904Z,99638.13
2019-05-05T23:46:58.285Z,99643.37
2019-05-05T23:49:48.810Z,99638.28
2019-05-05T23:52:39.112Z,99640.36
2019-05-05T23:55:29.692Z,99638.95
2019-05-05T23:58:21.074Z,99630.84
